Nearby METAR Reports


KSYR - Syracuse, New York, USA
Distance from station: SE 5mi, 8km
Updated: Sun, 19-Feb-2017 10:54am EST
Few Clouds
Few Clouds
 Wind from W
Wind: W 10 mph , 17 km/h
Temperature: 46°F , 8°C
Wind Chill: 41°F , 5°C
Dew Point: 34°F , 1°C
Humidity: 62%
Barometer: 29.85 inHg , 1010.8 hPa
Clouds: Few Clouds
Visibility: 10 miles , 16 km
Cloud details: Few Clouds 15000 ft
2017/02/19 15:54 KSYR 191554Z 28009KT 10SM FEW150 08/01 A2985 RMK AO2 SLP105 T00780011
KFZY - Fulton, New York, USA
Distance from station: NW 17mi, 27km
Updated: Sun, 19-Feb-2017 10:54am EST
Clear
Clear
 Wind from WNW
Wind: WNW 20 mph , 31 km/h, Gust: 25 mph , 41 km/h
Temperature: 45°F , 7°C
Wind Chill: 37°F , 3°C
Dew Point: 34°F , 1°C
Humidity: 66%
Barometer: 29.85 inHg , 1010.8 hPa
Clouds: Clear
Visibility: 10 miles , 16 km
2017/02/19 15:54 KFZY 191554Z AUTO 29017G22KT 10SM CLR 07/01 A2985 RMK AO2 SLP111 T00720011
 
KRME - Rome/Griffiss Af, New York, USA
Distance from station: E 39mi, 62km
Updated: Sun, 19-Feb-2017 10:53am EST
Clear
Clear
 Wind from WNW
Wind: WNW 15 mph , 24 km/h
Temperature: 43°F , 6°C
Wind Chill: 36°F , 2°C
Dew Point: 36°F , 2°C
Humidity: 76%
Barometer: 29.84 inHg , 1010.5 hPa
Clouds: Clear
Visibility: 10 miles , 16 km
2017/02/19 15:53 KRME 191553Z 29013KT 10SM CLR 06/02 A2984 RMK AO2 SLP108 T00610017
KITH - Ithaca/Tompkins, New York, USA
Distance from station: SSW 51mi, 82km
Updated: Sun, 19-Feb-2017 10:56am EST
Clear
Clear
 Wind from W
Wind: W 12 mph , 19 km/h
Temperature: 52°F , 11°C
Dew Point: 37°F , 3°C
Humidity: 58%
Barometer: 29.85 inHg , 1010.8 hPa
Clouds: Clear
Visibility: 10 miles , 16 km
2017/02/19 15:56 KITH 191556Z 28010KT 10SM CLR 11/03 A2985 RMK AO2 SLP109 T01110028
 
KART - Watertown, New York, USA
Distance from station: N 56mi, 91km
Updated: Sun, 19-Feb-2017 10:56am EST
Clear
Clear
 Wind from WSW
Wind: WSW 10 mph , 17 km/h, Gust: 18 mph , 30 km/h
Temperature: 43°F , 6°C
Wind Chill: 37°F , 3°C
Dew Point: 36°F , 2°C
Humidity: 76%
Barometer: 29.82 inHg , 1009.8 hPa
Clouds: Clear
Visibility: 10 miles , 16 km
2017/02/19 15:56 KART 191556Z AUTO 25009G16KT 10SM CLR 06/02 A2982 RMK AO2 SLP100 T00610022
KPEO - Penn Yan, New York, USA
Distance from station: SW 58mi, 93km
Updated: Sun, 19-Feb-2017 10:53am EST
Clear
Clear
 Wind from W
Wind: W 9 mph , 15 km/h
Temperature: 55°F , 13°C
Dew Point: 30°F , -1°C
Humidity: 38%
Barometer: 29.85 inHg , 1010.8 hPa
Clouds: Clear
Visibility: 10 miles , 16 km
2017/02/19 15:53 KPEO 191553Z AUTO 27008KT 10SM CLR 13/M01 A2985 RMK AO2 SLP108 T01281006 $
 
KGTB - Fort Drum/Wheele, New York, USA
Distance from station: NNE 64mi, 102km
Updated: Sun, 19-Feb-2017 10:58am EST
Clear
Clear
 Wind from WSW
Wind: WSW 9 mph , 15 km/h, Gust: 17 mph , 28 km/h
Temperature: 45°F , 7°C
Wind Chill: 40°F , 4°C
Dew Point: 32°F , 0°C
Humidity: 61%
Barometer: 29.79 inHg , 1008.8 hPa
Clouds: Clear
Visibility: 10 miles , 16 km
2017/02/19 15:58 KGTB 191558Z AUTO 25008G15KT 10SM CLR 07/00 A2979 RMK AO2 SLP092 T00670004 $
CWQP - Point Petre (mar, Ontario, Canada
Distance from station: NW 67mi, 107km
Updated: Sun, 19-Feb-2017 11:00am EST

 Wind from W
Wind: W 9 mph , 15 km/h
Temperature: 39°F , 4°C
Wind Chill: 33°F , 1°C
Dew Point: 36°F , 2°C
Humidity: 87%
2017/02/19 16:00 CWQP 191600Z AUTO 26008KT 04/02 RMK AO1 SOG 00 1015 SLP110 T00430020
 
KBGM - Binghamton, New York, USA
Distance from station: S 67mi, 107km
Updated: Sun, 19-Feb-2017 10:53am EST
Clear
Clear
 Wind from WNW
Wind: WNW 9 mph , 15 km/h
Temperature: 46°F , 8°C
Wind Chill: 41°F , 5°C
Dew Point: 34°F , 1°C
Humidity: 62%
Barometer: 29.82 inHg , 1009.8 hPa
Clouds: Clear
Visibility: 10 miles , 16 km
2017/02/19 15:53 KBGM 191553Z 29008KT 10SM CLR 08/01 A2982 RMK AO2 SLP103 T00830011
CYGK - Kingston Arpt (m, Ontario, Canada
Distance from station: NNW 75mi, 121km
Updated: Sun, 19-Feb-2017 11:00am EST
Partly cloudy
Partly cloudy
 Wind from WSW
Wind: WSW 8 mph , 13 km/h
Temperature: 45°F , 7°C
Wind Chill: 41°F , 5°C
Dew Point: 32°F , 0°C
Humidity: 61%
Barometer: 29.81 inHg , 1009.5 hPa
Clouds: Partly cloudy
Visibility: 15 miles , 24 km
Cloud details: Partly cloudy 22000 ft
2017/02/19 16:00 CYGK 191600Z 24007KT 15SM SCT220 07/00 A2981 RMK CI3 SLP097